Aeroporto :
LOGIN :

Iscrizione | Disclaimer

   EN    FR    IT 

 










Sommario :    VFR   VFR Marginale   IFR   IFR Intensivo   IFR Molto Intensivo
Visibilità : 
Base nubi : 
>= 8 km
>= 3000ft
5 / 8 km
1000 / 3000 ft
1500m / 5 km
500 / 1000 ft
800 / 1500m
200 / 500 ft
< 800m
< 200 ft
Simboli :   Temporali  Nebbia  Neve Forte  Precipitazioni Forti  Vento > 20 kt
SIGMETs :   Varie  Temporali  Ghiacco  Turbolenza  Onda orograficha  Ceneri Vulcaniche







- Altitudine del aeroporto : 121 ft
- Codice IATA : HUY
- Carte del aeroporto


EGNJ - Humberside

ULTIMO METAR :
  • 221350Z 22020KT 9999 FEW024 BKN030 22/15 Q1020

METARs OBSOLETI :
  • 221320Z 22018KT 9999 FEW024 BKN030 22/15 Q1020
  • 221250Z 21018KT 9999 FEW022 SCT038 21/15 Q1020
  • 221220Z 21019KT 9999 FEW022 BKN038 20/15 Q1021
  • 221150Z 21018KT 9999 SCT026 BKN031 20/14 Q1021

TAF TAF EGNJ
Valido dal 22 a 12 ore il 22 a 21 ore UTC


221104Z 2212/2221 20013KT 9999 SCT040
PROB30
TEMPO 2213/2221 21016G26KT
ATIS : +44 1652 682 020
Nessun NOTAM noto per questo aeroporto.



MetMap, La meteo Aeronautica in un colpo d'occhio ! - Copyright ORBIFLY Dicembre 2007 - Disclaimer

ORBIFLY MET'MAP TEAM :

Programmazione e sviluppo : Alexandra Zaïnal
Concezione e sviluppo : Baudouin d'Aumeries
Co-Programmazione e sviluppo : Marc-Olivier Méhu
Supporto tecnico e logistico : Manuel Goepfert
Aiuto per la traduzione : Arnaldo La Scala

Contatto : metmap@orbifly.com




FONTI E CREDITI :

   NOAA